Terminal Aerodrome Forecast
Issued by NWS

Home | Current Version | Previous Version | Text Only | Print | Product List | Glossary On
Versions: 1 2 3 4 5 6 7 8 9 10 11 12
000
FTUS46 KSGX 231100
TAFPSP
TAF
KPSP 231120Z 2312/2412 VRB05KT P6SM FEW200
     FM232200 32012G20KT P6SM SKC
     FM240600 VRB05KT P6SM SKC=

USA.gov is the U.S. government's official web portal to all federal, state and local government web resources and services.